createdAt,value
2019-01-12T00:00:47.772Z,1001.71
2019-01-12T00:01:45.725Z,1001.75
2019-01-12T00:02:42.783Z,1001.65
2019-01-12T00:03:39.858Z,1001.69
2019-01-12T00:04:36.917Z,1001.64
2019-01-12T00:05:34.001Z,1001.68
2019-01-12T00:06:31.048Z,1001.70
2019-01-12T00:07:28.104Z,1001.68
2019-01-12T00:08:25.166Z,1001.71
2019-01-12T00:09:22.231Z,1001.71
2019-01-12T00:10:19.316Z,1001.75
2019-01-12T00:11:16.363Z,1001.72
2019-01-12T00:12:13.436Z,1001.63
2019-01-12T00:13:10.637Z,1001.58
2019-01-12T00:14:07.568Z,1001.73
2019-01-12T00:15:04.637Z,1001.72
2019-01-12T00:16:01.721Z,1001.74
2019-01-12T00:16:58.765Z,1001.67
2019-01-12T00:17:55.830Z,1001.62
2019-01-12T00:18:53.739Z,1001.59
2019-01-12T00:20:47.038Z,1001.58
2019-01-12T00:21:44.085Z,1001.62
2019-01-12T00:22:41.171Z,1001.69
2019-01-12T00:23:38.224Z,1001.69
2019-01-12T00:24:35.295Z,1001.72
2019-01-12T00:25:32.355Z,1001.76
2019-01-12T00:26:29.423Z,1001.71
2019-01-12T00:27:26.489Z,1001.73
2019-01-12T00:28:23.555Z,1001.77
2019-01-12T00:29:20.629Z,1001.70
2019-01-12T00:30:17.690Z,1001.68
2019-01-12T00:31:14.763Z,1001.77
2019-01-12T00:32:12.819Z,1001.68
2019-01-12T00:33:08.885Z,1001.70
2019-01-12T00:34:05.967Z,1001.67
2019-01-12T00:35:03.020Z,1001.59
2019-01-12T00:36:00.090Z,1001.73
2019-01-12T00:36:57.154Z,1001.67
2019-01-12T00:37:54.223Z,1001.73
2019-01-12T00:38:52.286Z,1001.70
2019-01-12T00:39:48.366Z,1001.68
2019-01-12T00:40:45.417Z,1001.79
2019-01-12T00:41:42.652Z,1001.77
2019-01-12T00:42:39.543Z,1001.75
2019-01-12T00:43:36.610Z,1001.76
2019-01-12T00:44:33.683Z,1001.72
2019-01-12T00:45:31.739Z,1001.88
2019-01-12T00:46:27.817Z,1001.83
2019-01-12T00:47:24.871Z,1001.86
2019-01-12T00:48:21.945Z,1001.86
2019-01-12T00:49:19.017Z,1001.84
2019-01-12T00:50:16.073Z,1001.88
2019-01-12T00:51:13.154Z,1001.81
2019-01-12T00:52:10.213Z,1001.77
2019-01-12T00:53:07.585Z,1001.75
2019-01-12T00:54:04.345Z,1001.86
2019-01-12T00:55:01.414Z,1001.76
2019-01-12T00:55:58.624Z,1001.86
2019-01-12T00:56:55.539Z,1001.84
2019-01-12T00:57:52.607Z,1001.78
2019-01-12T00:58:49.667Z,1001.75
2019-01-12T00:59:46.739Z,1001.83
2019-01-12T01:00:43.809Z,1001.82
2019-01-12T01:01:41.079Z,1001.76
2019-01-12T01:02:37.935Z,1001.80
2019-01-12T01:03:35.037Z,1001.80
2019-01-12T01:04:32.073Z,1001.79
2019-01-12T01:05:29.130Z,1001.86
2019-01-12T01:06:26.219Z,1001.79
2019-01-12T01:07:23.273Z,1001.79
2019-01-12T01:08:20.343Z,1001.84
2019-01-12T01:09:17.400Z,1001.89
2019-01-12T01:10:14.605Z,1001.86
2019-01-12T01:11:11.576Z,1001.92
2019-01-12T01:12:08.605Z,1001.87
2019-01-12T01:13:05.660Z,1001.92
2019-01-12T01:14:02.725Z,1001.88
2019-01-12T01:14:59.802Z,1001.87
2019-01-12T01:15:56.859Z,1001.95
2019-01-12T01:16:54.237Z,1001.95
2019-01-12T01:17:50.999Z,1001.89
2019-01-12T01:18:48.068Z,1001.95
2019-01-12T01:19:46.131Z,1001.90
2019-01-12T01:20:42.192Z,1001.94
2019-01-12T01:21:39.260Z,1001.95
2019-01-12T01:22:37.347Z,1001.97
2019-01-12T01:23:33.389Z,1001.98
2019-01-12T01:24:30.613Z,1001.99
2019-01-12T01:25:27.532Z,1002.02
2019-01-12T01:26:24.600Z,1001.90
2019-01-12T01:27:21.693Z,1001.98
2019-01-12T01:28:18.728Z,1001.97
2019-01-12T01:29:15.796Z,1001.98
2019-01-12T01:30:12.857Z,1001.98
2019-01-12T01:31:09.922Z,1001.93
2019-01-12T01:32:06.996Z,1002.09
2019-01-12T01:33:04.051Z,1001.98
2019-01-12T01:34:01.119Z,1001.97
2019-01-12T01:34:58.184Z,1001.89
2019-01-12T01:35:55.257Z,1002.00
2019-01-12T01:36:52.333Z,1002.00
2019-01-12T01:37:49.387Z,1002.04
2019-01-12T01:38:46.446Z,1002.06
2019-01-12T01:39:43.514Z,1001.92
2019-01-12T01:40:40.577Z,1002.03
2019-01-12T01:41:37.647Z,1002.00
2019-01-12T01:42:34.725Z,1002.08
2019-01-12T01:43:32.784Z,1002.04
2019-01-12T01:44:28.849Z,1002.04
2019-01-12T01:45:25.918Z,1002.11
2019-01-12T01:46:22.982Z,1002.06
2019-01-12T01:47:20.059Z,1002.12
2019-01-12T01:48:17.116Z,1002.06
2019-01-12T01:49:14.184Z,1002.12
2019-01-12T01:50:11.252Z,1002.16
2019-01-12T01:51:08.324Z,1002.15
2019-01-12T01:52:05.383Z,1002.19
2019-01-12T01:53:02.618Z,1002.18
2019-01-12T01:53:59.509Z,1002.17
2019-01-12T01:54:56.571Z,1002.24
2019-01-12T01:55:53.641Z,1002.26
2019-01-12T01:56:50.719Z,1002.24
2019-01-12T01:57:47.780Z,1002.24
2019-01-12T01:58:44.843Z,1002.18
2019-01-12T01:59:41.907Z,1002.18
2019-01-12T02:00:39.967Z,1002.24
2019-01-12T02:01:36.033Z,1002.24
2019-01-12T02:02:33.103Z,1002.28
2019-01-12T02:03:30.174Z,1002.22
2019-01-12T02:04:27.246Z,1002.26
2019-01-12T02:05:24.310Z,1002.28
2019-01-12T02:06:21.370Z,1002.28
2019-01-12T02:07:19.434Z,1002.19
2019-01-12T02:08:15.525Z,1002.23
2019-01-12T02:09:12.593Z,1002.18
2019-01-12T02:10:09.647Z,1002.21
2019-01-12T02:11:06.703Z,1002.18
2019-01-12T02:12:03.761Z,1002.25
2019-01-12T02:13:00.842Z,1002.17
2019-01-12T02:13:58.901Z,1002.23
2019-01-12T02:14:54.988Z,1002.18
2019-01-12T02:15:52.027Z,1002.15
2019-01-12T02:16:49.097Z,1002.07
2019-01-12T02:17:46.166Z,1002.11
2019-01-12T02:18:43.233Z,1002.06
2019-01-12T02:19:40.288Z,1002.00
2019-01-12T02:20:37.367Z,1002.07
2019-01-12T02:21:34.734Z,1002.12
2019-01-12T02:22:31.494Z,1002.11
2019-01-12T02:23:28.567Z,1002.18
2019-01-12T02:24:26.623Z,1002.17
2019-01-12T02:25:22.684Z,1002.18
2019-01-12T02:26:19.758Z,1002.22
2019-01-12T02:27:16.824Z,1002.25
2019-01-12T02:28:13.902Z,1002.20
2019-01-12T02:29:10.958Z,1002.07
2019-01-12T02:30:08.026Z,1002.14
2019-01-12T02:31:05.087Z,1002.04
2019-01-12T02:32:02.173Z,1002.21
2019-01-12T02:32:59.229Z,1002.14
2019-01-12T02:33:56.299Z,1002.13
2019-01-12T02:34:53.349Z,1002.18
2019-01-12T02:35:50.423Z,1002.05
2019-01-12T02:36:47.492Z,1002.12
2019-01-12T02:37:44.556Z,1002.17
2019-01-12T02:38:41.620Z,1002.03
2019-01-12T02:39:38.675Z,1002.06
2019-01-12T02:40:35.745Z,1002.13
2019-01-12T02:41:33.811Z,1002.18
2019-01-12T02:42:29.873Z,1002.18
2019-01-12T02:43:26.942Z,1002.16
2019-01-12T02:44:24.015Z,1002.15
2019-01-12T02:45:21.072Z,1002.17
2019-01-12T02:46:18.141Z,1002.13
2019-01-12T02:47:15.215Z,1002.07
2019-01-12T02:48:12.275Z,1002.10
2019-01-12T02:49:09.365Z,1002.14
2019-01-12T02:50:06.400Z,1002.04
2019-01-12T02:51:03.467Z,1002.02
2019-01-12T02:52:00.540Z,1002.03
2019-01-12T02:52:57.615Z,1002.05
2019-01-12T02:53:54.668Z,1002.05
2019-01-12T02:54:51.745Z,1002.03
2019-01-12T02:55:48.828Z,1001.97
2019-01-12T02:56:45.870Z,1001.98
2019-01-12T02:57:42.951Z,1001.95
2019-01-12T02:58:40.009Z,1002.00
2019-01-12T02:59:37.082Z,1001.96
2019-01-12T03:00:34.128Z,1001.96
2019-01-12T03:01:31.196Z,1001.99
2019-01-12T03:02:28.266Z,1001.99
2019-01-12T03:03:25.788Z,1001.95
2019-01-12T03:04:22.413Z,1001.95
2019-01-12T03:05:19.464Z,1001.92
2019-01-12T03:06:16.528Z,1001.89
2019-01-12T03:07:13.587Z,1001.97
2019-01-12T03:08:10.667Z,1002.01
2019-01-12T03:09:07.728Z,1001.98
2019-01-12T03:10:04.798Z,1001.96
2019-01-12T03:11:01.877Z,1002.00
2019-01-12T03:11:58.926Z,1002.06
2019-01-12T03:12:56.006Z,1002.00
2019-01-12T03:13:53.059Z,1002.01
2019-01-12T03:14:50.133Z,1001.97
2019-01-12T03:15:47.197Z,1002.01
2019-01-12T03:16:44.261Z,1002.02
2019-01-12T03:17:41.323Z,1001.99
2019-01-12T03:18:38.392Z,1002.05
2019-01-12T03:19:35.468Z,1001.99
2019-01-12T03:20:32.646Z,1001.96
2019-01-12T03:21:29.598Z,1001.95
2019-01-12T03:22:26.664Z,1002.01
2019-01-12T03:23:23.716Z,1001.95
2019-01-12T03:24:20.784Z,1001.99
2019-01-12T03:25:19.206Z,1002.01
2019-01-12T03:26:15.218Z,1001.92
2019-01-12T03:27:11.975Z,1001.90
2019-01-12T03:28:09.055Z,1001.97
2019-01-12T03:29:07.117Z,1001.94
2019-01-12T03:30:03.221Z,1001.94
2019-01-12T03:31:00.254Z,1001.99
2019-01-12T03:31:57.317Z,1002.04
2019-01-12T03:32:54.392Z,1001.94
2019-01-12T03:33:51.443Z,1001.97
2019-01-12T03:34:48.708Z,1001.92
2019-01-12T03:35:45.602Z,1001.92
2019-01-12T03:36:42.665Z,1001.88
2019-01-12T03:37:39.707Z,1001.89
2019-01-12T03:38:36.778Z,1001.89
2019-01-12T03:39:33.841Z,1001.84
2019-01-12T03:40:30.915Z,1001.91
2019-01-12T03:41:27.972Z,1001.88
2019-01-12T03:42:25.039Z,1001.87
2019-01-12T03:43:22.127Z,1001.87
2019-01-12T03:44:19.166Z,1001.82
2019-01-12T03:45:16.255Z,1001.82
2019-01-12T03:46:13.311Z,1001.85
2019-01-12T03:47:10.392Z,1001.82
2019-01-12T03:48:07.439Z,1001.82
2019-01-12T03:49:04.502Z,1001.83
2019-01-12T03:50:01.576Z,1001.81
2019-01-12T03:50:58.638Z,1001.88
2019-01-12T03:51:55.896Z,1001.77
2019-01-12T03:52:52.782Z,1001.78
2019-01-12T03:53:49.847Z,1001.85
2019-01-12T03:54:46.891Z,1001.80
2019-01-12T03:55:43.975Z,1001.86
2019-01-12T03:56:41.036Z,1001.83
2019-01-12T03:57:38.121Z,1001.78
2019-01-12T03:58:35.159Z,1001.76
2019-01-12T03:59:32.242Z,1001.82
2019-01-12T04:00:29.302Z,1001.82
2019-01-12T04:01:26.367Z,1001.76
2019-01-12T04:02:23.430Z,1001.77
2019-01-12T04:03:20.624Z,1001.77
2019-01-12T04:04:17.558Z,1001.78
2019-01-12T04:05:14.627Z,1001.73
2019-01-12T04:06:11.697Z,1001.70
2019-01-12T04:07:08.759Z,1001.77
2019-01-12T04:08:05.820Z,1001.78
2019-01-12T04:09:03.081Z,1001.75
2019-01-12T04:10:00.958Z,1001.70
2019-01-12T04:10:57.028Z,1001.79
2019-01-12T04:11:54.091Z,1001.74
2019-01-12T04:12:51.159Z,1001.65
2019-01-12T04:13:48.223Z,1001.79
2019-01-12T04:14:45.282Z,1001.70
2019-01-12T04:15:42.349Z,1001.81
2019-01-12T04:16:39.421Z,1001.70
2019-01-12T04:17:36.512Z,1001.75
2019-01-12T04:18:33.543Z,1001.69
2019-01-12T04:19:30.616Z,1001.64
2019-01-12T04:20:27.687Z,1001.67
2019-01-12T04:21:24.759Z,1001.71
2019-01-12T04:22:21.812Z,1001.63
2019-01-12T04:23:18.896Z,1001.65
2019-01-12T04:24:15.951Z,1001.67
2019-01-12T04:25:13.017Z,1001.70
2019-01-12T04:26:10.082Z,1001.71
2019-01-12T04:27:07.152Z,1001.67
2019-01-12T04:28:04.215Z,1001.66
2019-01-12T04:29:01.284Z,1001.60
2019-01-12T04:29:58.346Z,1001.71
2019-01-12T04:30:55.432Z,1001.64
2019-01-12T04:31:52.483Z,1001.56
2019-01-12T04:32:49.550Z,1001.66
2019-01-12T04:33:46.615Z,1001.73
2019-01-12T04:34:43.679Z,1001.70
2019-01-12T04:35:40.749Z,1001.67
2019-01-12T04:36:37.815Z,1001.66
2019-01-12T04:37:34.884Z,1001.76
2019-01-12T04:38:31.938Z,1001.77
2019-01-12T04:39:29.017Z,1001.74
2019-01-12T04:40:26.073Z,1001.70
2019-01-12T04:41:23.160Z,1001.77
2019-01-12T04:42:20.214Z,1001.74
2019-01-12T04:43:17.313Z,1001.66
2019-01-12T04:44:14.347Z,1001.67
2019-01-12T04:45:11.397Z,1001.68
2019-01-12T04:46:08.604Z,1001.72
2019-01-12T04:47:05.544Z,1001.68
2019-01-12T04:48:02.604Z,1001.66
2019-01-12T04:48:59.674Z,1001.73
2019-01-12T04:49:56.737Z,1001.66
2019-01-12T04:50:54.804Z,1001.72
2019-01-12T04:51:50.868Z,1001.59
2019-01-12T04:52:47.955Z,1001.68
2019-01-12T04:53:45.012Z,1001.70
2019-01-12T04:54:42.065Z,1001.61
2019-01-12T04:55:41.628Z,1001.65
2019-01-12T04:56:36.203Z,1001.70
2019-01-12T04:57:34.285Z,1001.65
2019-01-12T04:58:30.334Z,1001.66
2019-01-12T04:59:27.401Z,1001.66
2019-01-12T05:00:24.599Z,1001.60
2019-01-12T05:01:21.532Z,1001.60
2019-01-12T05:02:18.597Z,1001.59
2019-01-12T05:03:15.685Z,1001.68
2019-01-12T05:04:12.728Z,1001.65
2019-01-12T05:05:09.813Z,1001.55
2019-01-12T05:06:06.860Z,1001.62
2019-01-12T05:07:03.929Z,1001.57
2019-01-12T05:08:01.001Z,1001.59
2019-01-12T05:08:58.053Z,1001.58
2019-01-12T05:09:55.137Z,1001.55
2019-01-12T05:10:52.203Z,1001.52
2019-01-12T05:11:49.299Z,1001.52
2019-01-12T05:12:46.335Z,1001.60
2019-01-12T05:13:43.393Z,1001.64
2019-01-12T05:14:40.595Z,1001.50
2019-01-12T05:15:37.542Z,1001.57
2019-01-12T05:16:34.594Z,1001.61
2019-01-12T05:17:31.659Z,1001.60
2019-01-12T05:18:29.033Z,1001.55
2019-01-12T05:19:25.794Z,1001.67
2019-01-12T05:20:22.867Z,1001.55
2019-01-12T05:21:20.918Z,1001.60
2019-01-12T05:22:16.985Z,1001.65
2019-01-12T05:23:14.060Z,1001.65
2019-01-12T05:24:11.123Z,1001.60
2019-01-12T05:25:08.191Z,1001.69
2019-01-12T05:26:05.255Z,1001.69
2019-01-12T05:27:02.515Z,1001.65
2019-01-12T05:28:00.387Z,1001.60
2019-01-12T05:28:56.463Z,1001.62
2019-01-12T05:29:53.514Z,1001.63
2019-01-12T05:30:50.602Z,1001.66
2019-01-12T05:31:47.648Z,1001.60
2019-01-12T05:32:44.709Z,1001.62
2019-01-12T05:33:41.781Z,1001.59
2019-01-12T05:34:38.843Z,1001.55
2019-01-12T05:35:35.909Z,1001.58
2019-01-12T05:36:32.977Z,1001.56
2019-01-12T05:37:30.046Z,1001.62
2019-01-12T05:38:27.114Z,1001.62
2019-01-12T05:39:24.176Z,1001.61
2019-01-12T05:40:21.240Z,1001.57
2019-01-12T05:41:18.309Z,1001.64
2019-01-12T05:42:15.686Z,1001.63
2019-01-12T05:43:12.435Z,1001.65
2019-01-12T05:44:09.516Z,1001.59
2019-01-12T05:45:07.582Z,1001.57
2019-01-12T05:46:03.638Z,1001.65
2019-01-12T05:47:00.717Z,1001.67
2019-01-12T05:47:57.774Z,1001.58
2019-01-12T05:48:54.854Z,1001.62
2019-01-12T05:49:51.907Z,1001.62
2019-01-12T05:50:48.977Z,1001.60
2019-01-12T05:51:46.038Z,1001.68
2019-01-12T05:52:43.116Z,1001.63
2019-01-12T05:53:40.191Z,1001.63
2019-01-12T05:54:37.234Z,1001.63
2019-01-12T05:55:34.300Z,1001.66
2019-01-12T05:56:31.378Z,1001.68
2019-01-12T05:57:28.433Z,1001.68
2019-01-12T05:58:25.505Z,1001.70
2019-01-12T05:59:22.573Z,1001.72
2019-01-12T06:00:19.632Z,1001.71
2019-01-12T06:01:16.700Z,1001.74
2019-01-12T06:02:13.765Z,1001.72
2019-01-12T06:03:10.824Z,1001.81
2019-01-12T06:04:07.908Z,1001.69
2019-01-12T06:05:04.962Z,1001.73
2019-01-12T06:06:02.328Z,1001.82
2019-01-12T06:06:59.101Z,1001.73
2019-01-12T06:07:56.168Z,1001.76
2019-01-12T06:08:54.233Z,1001.87
2019-01-12T06:09:50.285Z,1001.78
2019-01-12T06:10:47.372Z,1001.81
2019-01-12T06:11:44.427Z,1001.80
2019-01-12T06:12:41.498Z,1001.75
2019-01-12T06:13:38.582Z,1001.80
2019-01-12T06:14:35.630Z,1001.76
2019-01-12T06:15:32.692Z,1001.75
2019-01-12T06:16:29.779Z,1001.75
2019-01-12T06:17:26.828Z,1001.75
2019-01-12T06:18:23.897Z,1001.69
2019-01-12T06:19:20.957Z,1001.59
2019-01-12T06:20:18.033Z,1001.66
2019-01-12T06:21:15.087Z,1001.69
2019-01-12T06:22:12.158Z,1001.61
2019-01-12T06:23:09.227Z,1001.72
2019-01-12T06:24:06.287Z,1001.68
2019-01-12T06:25:03.359Z,1001.71
2019-01-12T06:26:04.085Z,1001.71
2019-01-12T06:26:57.480Z,1001.76
2019-01-12T06:27:54.554Z,1001.79
2019-01-12T06:28:51.619Z,1001.74
2019-01-12T06:29:49.000Z,1001.81
2019-01-12T06:30:45.752Z,1001.74
2019-01-12T06:31:42.817Z,1001.76
2019-01-12T06:32:40.879Z,1001.86
2019-01-12T06:33:36.947Z,1001.74
2019-01-12T06:34:34.033Z,1001.78
2019-01-12T06:35:31.087Z,1001.86
2019-01-12T06:36:28.158Z,1001.71
2019-01-12T06:37:25.224Z,1001.74
2019-01-12T06:38:22.729Z,1001.66
2019-01-12T06:39:19.343Z,1001.76
2019-01-12T06:40:16.437Z,1001.69
2019-01-12T06:41:13.476Z,1001.68
2019-01-12T06:42:10.550Z,1001.72
2019-01-12T06:43:07.649Z,1001.65
2019-01-12T06:44:04.679Z,1001.72
2019-01-12T06:45:01.744Z,1001.68
2019-01-12T06:45:58.807Z,1001.76
2019-01-12T06:46:55.882Z,1001.62
2019-01-12T06:47:52.940Z,1001.77
2019-01-12T06:48:50.008Z,1001.66
2019-01-12T06:49:48.084Z,1001.62
2019-01-12T06:50:44.134Z,1001.62
2019-01-12T06:51:41.209Z,1001.66
2019-01-12T06:52:38.270Z,1001.68
2019-01-12T06:53:35.347Z,1001.69
2019-01-12T06:54:32.401Z,1001.77
2019-01-12T06:55:29.476Z,1001.76
2019-01-12T06:56:27.537Z,1001.87
2019-01-12T06:57:23.601Z,1001.84
2019-01-12T06:58:20.662Z,1001.75
2019-01-12T06:59:17.741Z,1001.86
2019-01-12T07:00:14.808Z,1001.83
2019-01-12T07:01:11.870Z,1001.80
2019-01-12T07:02:08.927Z,1001.88
2019-01-12T07:03:05.999Z,1001.77
2019-01-12T07:04:03.078Z,1001.84
2019-01-12T07:05:00.182Z,1001.82
2019-01-12T07:05:57.203Z,1001.91
2019-01-12T07:06:54.267Z,1001.77
2019-01-12T07:07:51.331Z,1001.78
2019-01-12T07:08:48.390Z,1001.84
2019-01-12T07:09:45.461Z,1001.78
2019-01-12T07:10:42.534Z,1001.85
2019-01-12T07:11:39.588Z,1001.80
2019-01-12T07:12:36.666Z,1001.81
2019-01-12T07:13:34.730Z,1001.78
2019-01-12T07:14:30.846Z,1001.69
2019-01-12T07:15:27.863Z,1001.74
2019-01-12T07:16:24.922Z,1001.77
2019-01-12T07:17:22.005Z,1001.74
2019-01-12T07:18:18.175Z,1001.75
2019-01-12T07:19:16.133Z,1001.70
2019-01-12T07:20:13.200Z,1001.77
2019-01-12T07:21:10.254Z,1001.68
2019-01-12T07:22:07.329Z,1001.76
2019-01-12T07:23:04.390Z,1001.64
2019-01-12T07:24:01.473Z,1001.61
2019-01-12T07:24:58.513Z,1001.68
2019-01-12T07:25:55.590Z,1001.70
2019-01-12T07:26:52.654Z,1001.73
2019-01-12T07:27:49.729Z,1001.77
2019-01-12T07:28:46.790Z,1001.76
2019-01-12T07:29:43.856Z,1001.81
2019-01-12T07:30:40.924Z,1001.78
2019-01-12T07:31:37.982Z,1001.81
2019-01-12T07:32:35.052Z,1001.87
2019-01-12T07:33:32.115Z,1001.84
2019-01-12T07:34:29.192Z,1001.83
2019-01-12T07:35:26.250Z,1001.90
2019-01-12T07:36:23.322Z,1001.77
2019-01-12T07:37:20.380Z,1001.83
2019-01-12T07:38:17.446Z,1001.86
2019-01-12T07:39:14.519Z,1001.84
2019-01-12T07:40:11.579Z,1001.82
2019-01-12T07:41:08.658Z,1001.82
2019-01-12T07:42:05.720Z,1001.80
2019-01-12T07:43:02.784Z,1001.80
2019-01-12T07:43:59.841Z,1001.77
2019-01-12T07:44:56.922Z,1001.83
2019-01-12T07:45:53.982Z,1001.78
2019-01-12T07:46:51.053Z,1001.84
2019-01-12T07:47:48.110Z,1001.81
2019-01-12T07:48:45.168Z,1001.84
2019-01-12T07:49:42.256Z,1001.86
2019-01-12T07:50:39.302Z,1001.80
2019-01-12T07:51:36.397Z,1001.90
2019-01-12T07:52:33.435Z,1001.88
2019-01-12T07:53:30.515Z,1001.94
2019-01-12T07:54:27.569Z,1001.82
2019-01-12T07:55:24.633Z,1001.88
2019-01-12T07:56:24.545Z,1001.92
2019-01-12T07:57:18.773Z,1001.84
2019-01-12T07:58:15.837Z,1001.90
2019-01-12T07:59:12.908Z,1001.90
2019-01-12T08:00:09.967Z,1001.88
2019-01-12T08:01:08.039Z,1001.91
2019-01-12T08:02:04.109Z,1001.87
2019-01-12T08:03:01.169Z,1001.88
2019-01-12T08:03:58.229Z,1001.88
2019-01-12T08:04:55.610Z,1001.80
2019-01-12T08:05:52.364Z,1001.80
2019-01-12T08:06:49.444Z,1001.82
2019-01-12T08:07:46.493Z,1001.80
2019-01-12T08:08:43.562Z,1001.88
2019-01-12T08:09:40.634Z,1001.79
2019-01-12T08:10:37.700Z,1001.79
2019-01-12T08:11:34.770Z,1001.75
2019-01-12T08:12:31.828Z,1001.79
2019-01-12T08:13:28.894Z,1001.78
2019-01-12T08:14:25.970Z,1001.73
2019-01-12T08:15:23.054Z,1001.69
2019-01-12T08:16:20.367Z,1001.71
2019-01-12T08:17:17.151Z,1001.70
2019-01-12T08:18:14.232Z,1001.74
2019-01-12T08:19:11.287Z,1001.65
2019-01-12T08:20:08.373Z,1001.64
2019-01-12T08:21:05.421Z,1001.62
2019-01-12T08:22:02.631Z,1001.55
2019-01-12T08:22:59.558Z,1001.62
2019-01-12T08:23:56.623Z,1001.56
2019-01-12T08:24:53.689Z,1001.54
2019-01-12T08:25:50.755Z,1001.57
2019-01-12T08:26:47.817Z,1001.55
2019-01-12T08:27:44.887Z,1001.62
2019-01-12T08:28:41.954Z,1001.56
2019-01-12T08:29:39.027Z,1001.58
2019-01-12T08:30:36.087Z,1001.60
2019-01-12T08:31:33.159Z,1001.59
2019-01-12T08:32:30.232Z,1001.67
2019-01-12T08:33:27.280Z,1001.60
2019-01-12T08:34:24.353Z,1001.61
2019-01-12T08:35:21.419Z,1001.60
2019-01-12T08:36:19.615Z,1001.56
2019-01-12T08:37:15.543Z,1001.59
2019-01-12T08:38:12.611Z,1001.66
2019-01-12T08:39:09.683Z,1001.69
2019-01-12T08:40:06.755Z,1001.69
2019-01-12T08:41:03.809Z,1001.73
2019-01-12T08:42:00.888Z,1001.71
2019-01-12T08:42:57.946Z,1001.64
2019-01-12T08:43:55.024Z,1001.63
2019-01-12T08:44:52.075Z,1001.66
2019-01-12T08:45:49.443Z,1001.63
2019-01-12T08:46:46.227Z,1001.56
2019-01-12T08:47:43.276Z,1001.64
2019-01-12T08:48:40.345Z,1001.63
2019-01-12T08:49:37.413Z,1001.70
2019-01-12T08:50:34.474Z,1001.69
2019-01-12T08:51:31.540Z,1001.64
2019-01-12T08:52:28.617Z,1001.68
2019-01-12T08:53:25.672Z,1001.67
2019-01-12T08:54:22.730Z,1001.64
2019-01-12T08:55:19.798Z,1001.59
2019-01-12T08:56:16.863Z,1001.57
2019-01-12T08:57:13.106Z,1001.63
2019-01-12T08:58:10.108Z,1001.60
2019-01-12T08:59:07.195Z,1001.67
2019-01-12T09:00:05.129Z,1001.66
2019-01-12T09:01:01.359Z,1001.61
2019-01-12T09:01:59.261Z,1001.59
2019-01-12T09:02:56.656Z,1001.59
2019-01-12T09:03:53.390Z,1001.54
2019-01-12T09:04:49.620Z,1001.57
2019-01-12T09:05:48.608Z,1001.55
2019-01-12T09:06:44.702Z,1001.39
2019-01-12T09:07:41.668Z,1001.40
2019-01-12T09:08:38.716Z,1001.45
2019-01-12T09:09:35.792Z,1001.51
2019-01-12T09:10:32.855Z,1001.53
2019-01-12T09:11:30.050Z,1001.48
2019-01-12T09:12:26.431Z,1001.50
2019-01-12T09:13:23.167Z,1001.50
2019-01-12T09:14:20.290Z,1001.44
2019-01-12T09:15:17.302Z,1001.49
2019-01-12T09:16:14.359Z,1001.46
2019-01-12T09:17:11.624Z,1001.47
2019-01-12T09:18:09.506Z,1001.45
2019-01-12T09:19:05.571Z,1001.46
2019-01-12T09:20:02.752Z,1001.47
2019-01-12T09:20:59.693Z,1001.42
2019-01-12T09:21:56.796Z,1001.36
2019-01-12T09:22:53.856Z,1001.42
2019-01-12T09:23:50.995Z,1001.40
2019-01-12T09:24:47.973Z,1001.38
2019-01-12T09:25:45.018Z,1001.35
2019-01-12T09:26:45.027Z,1001.30
2019-01-12T09:27:39.162Z,1001.19
2019-01-12T09:28:36.220Z,1001.23
2019-01-12T09:29:33.300Z,1001.17
2019-01-12T09:30:30.398Z,1001.10
2019-01-12T09:31:27.416Z,1001.09
2019-01-12T09:32:24.508Z,1001.12
2019-01-12T09:33:21.568Z,1001.11
2019-01-12T09:34:18.654Z,1001.19
2019-01-12T09:35:16.043Z,1001.18
2019-01-12T09:36:12.752Z,1001.16
2019-01-12T09:37:09.879Z,1001.17
2019-01-12T09:38:06.879Z,1001.19
2019-01-12T09:39:03.969Z,1001.13
2019-01-12T09:40:01.005Z,1001.07
2019-01-12T09:40:58.079Z,1001.13
2019-01-12T09:41:55.146Z,1001.17
2019-01-12T09:42:52.231Z,1001.13
2019-01-12T09:43:49.306Z,1001.22
2019-01-12T09:44:46.368Z,1001.20
2019-01-12T09:45:44.405Z,1001.13
2019-01-12T09:46:40.606Z,1001.18
2019-01-12T09:47:37.553Z,1001.13
2019-01-12T09:48:34.641Z,1001.16
2019-01-12T09:49:31.675Z,1001.19
2019-01-12T09:50:28.747Z,1001.16
2019-01-12T09:51:25.811Z,1001.19
2019-01-12T09:52:22.873Z,1001.20
2019-01-12T09:53:19.947Z,1001.18
2019-01-12T09:54:17.014Z,1001.14
2019-01-12T09:55:14.075Z,1001.07
2019-01-12T09:56:11.143Z,1001.08
2019-01-12T09:57:08.198Z,1001.04
2019-01-12T09:58:05.267Z,1001.11
2019-01-12T09:59:02.369Z,1001.14
2019-01-12T09:59:59.398Z,1001.11
2019-01-12T10:00:56.463Z,1000.99
2019-01-12T10:01:53.544Z,1001.07
2019-01-12T10:02:50.622Z,1000.96
2019-01-12T10:03:47.662Z,1001.06
2019-01-12T10:04:44.744Z,1000.94
2019-01-12T10:05:41.828Z,1000.97
2019-01-12T10:06:38.858Z,1001.03
2019-01-12T10:07:35.930Z,1000.97
2019-01-12T10:08:32.997Z,1001.00
2019-01-12T10:09:31.076Z,1001.00
2019-01-12T10:10:27.144Z,1001.07
2019-01-12T10:11:24.199Z,1001.08
2019-01-12T10:12:21.282Z,1001.20
2019-01-12T10:13:18.328Z,1001.16
2019-01-12T10:14:15.390Z,1001.16
2019-01-12T10:15:12.492Z,1001.14
2019-01-12T10:16:09.516Z,1001.17
2019-01-12T10:17:06.606Z,1001.07
2019-01-12T10:18:03.653Z,1000.94
2019-01-12T10:19:00.746Z,1000.88
2019-01-12T10:19:57.797Z,1000.77
2019-01-12T10:20:54.869Z,1000.70
2019-01-12T10:21:51.920Z,1000.74
2019-01-12T10:22:48.991Z,1000.74
2019-01-12T10:23:46.054Z,1000.71
2019-01-12T10:24:43.130Z,1000.72
2019-01-12T10:25:40.185Z,1000.68
2019-01-12T10:26:38.255Z,1000.65
2019-01-12T10:27:34.337Z,1000.64
2019-01-12T10:28:31.403Z,1000.53
2019-01-12T10:29:28.614Z,1000.46
2019-01-12T10:30:25.521Z,1000.51
2019-01-12T10:31:22.592Z,1000.52
2019-01-12T10:32:19.643Z,1000.54
2019-01-12T10:33:16.714Z,1000.46
2019-01-12T10:34:13.790Z,1000.45
2019-01-12T10:35:10.971Z,1000.37
2019-01-12T10:36:07.997Z,1000.47
2019-01-12T10:37:05.089Z,1000.40
2019-01-12T10:38:02.158Z,1000.45
2019-01-12T10:38:59.109Z,1000.38
2019-01-12T10:39:56.192Z,1000.32
2019-01-12T10:40:53.544Z,1000.37
2019-01-12T10:41:50.305Z,1000.39
2019-01-12T10:42:48.397Z,1000.37
2019-01-12T10:43:44.462Z,1000.31
2019-01-12T10:44:41.527Z,1000.25
2019-01-12T10:45:38.603Z,1000.23
2019-01-12T10:46:35.640Z,1000.28
2019-01-12T10:47:32.701Z,1000.29
2019-01-12T10:48:29.786Z,1000.20
2019-01-12T10:49:26.838Z,1000.08
2019-01-12T10:50:24.903Z,1000.10
2019-01-12T10:51:20.982Z,1000.01
2019-01-12T10:52:18.026Z,999.99
2019-01-12T10:53:15.133Z,999.86
2019-01-12T10:54:12.160Z,999.93
2019-01-12T10:55:09.236Z,999.81
2019-01-12T10:56:06.308Z,999.77
2019-01-12T10:57:05.687Z,999.79
2019-01-12T10:58:00.601Z,999.77
2019-01-12T10:58:57.594Z,999.76
2019-01-12T10:59:54.578Z,999.71
2019-01-12T11:00:51.651Z,999.71
2019-01-12T11:01:48.715Z,999.77
2019-01-12T11:02:45.835Z,999.71
2019-01-12T11:03:42.828Z,999.68
2019-01-12T11:04:39.924Z,999.74
2019-01-12T11:05:37.199Z,999.67
2019-01-12T11:06:34.031Z,999.79
2019-01-12T11:07:31.134Z,999.76
2019-01-12T11:08:28.163Z,999.74
2019-01-12T11:09:25.225Z,999.80
2019-01-12T11:10:22.286Z,999.79
2019-01-12T11:11:19.379Z,999.69
2019-01-12T11:12:16.408Z,999.81
2019-01-12T11:13:13.494Z,999.75
2019-01-12T11:14:10.584Z,999.72
2019-01-12T11:15:08.359Z,999.65
2019-01-12T11:16:04.771Z,999.67
2019-01-12T11:17:01.765Z,999.61
2019-01-12T11:17:58.827Z,999.70
2019-01-12T11:18:55.884Z,999.60
2019-01-12T11:19:53.936Z,999.48
2019-01-12T11:20:51.039Z,999.55
2019-01-12T11:21:47.094Z,999.53
2019-01-12T11:22:44.167Z,999.54
2019-01-12T11:23:41.217Z,999.43
2019-01-12T11:24:38.277Z,999.46
2019-01-12T11:25:35.374Z,999.43
2019-01-12T11:26:32.448Z,999.49
2019-01-12T11:27:29.587Z,999.47
2019-01-12T11:28:26.559Z,999.40
2019-01-12T11:29:23.605Z,999.42
2019-01-12T11:30:20.682Z,999.42
2019-01-12T11:31:19.857Z,999.36
2019-01-12T11:32:14.821Z,999.34
2019-01-12T11:33:11.868Z,999.31